sensor_id;sensor_type;location;lat;lon;timestamp;P1;durP1;ratioP1;P2;durP2;ratioP2
43933;SDS011;59081;42.706;23.306;2022-09-23T00:00:09;10.80;;;6.50;;
43933;SDS011;59081;42.706;23.306;2022-09-23T00:02:35;8.95;;;5.78;;
43933;SDS011;59081;42.706;23.306;2022-09-23T00:05:00;7.72;;;6.38;;
43933;SDS011;59081;42.706;23.306;2022-09-23T00:07:26;7.75;;;5.57;;
43933;SDS011;59081;42.706;23.306;2022-09-23T00:09:51;8.13;;;6.15;;
43933;SDS011;59081;42.706;23.306;2022-09-23T00:12:16;6.88;;;6.07;;
43933;SDS011;59081;42.706;23.306;2022-09-23T00:14:42;7.00;;;5.85;;
43933;SDS011;59081;42.706;23.306;2022-09-23T00:17:07;6.85;;;5.60;;
43933;SDS011;59081;42.706;23.306;2022-09-23T00:19:33;7.50;;;5.47;;
43933;SDS011;59081;42.706;23.306;2022-09-23T00:21:59;6.63;;;6.00;;
43933;SDS011;59081;42.706;23.306;2022-09-23T00:24:24;6.07;;;5.15;;
43933;SDS011;59081;42.706;23.306;2022-09-23T00:26:50;8.65;;;6.15;;
43933;SDS011;59081;42.706;23.306;2022-09-23T00:29:15;7.05;;;5.70;;
43933;SDS011;59081;42.706;23.306;2022-09-23T00:31:41;9.50;;;5.53;;
43933;SDS011;59081;42.706;23.306;2022-09-23T00:34:08;7.45;;;5.72;;
43933;SDS011;59081;42.706;23.306;2022-09-23T00:36:35;7.63;;;5.38;;
43933;SDS011;59081;42.706;23.306;2022-09-23T00:39:00;7.70;;;6.10;;
43933;SDS011;59081;42.706;23.306;2022-09-23T00:41:28;5.88;;;5.00;;
43933;SDS011;59081;42.706;23.306;2022-09-23T00:43:55;6.53;;;5.13;;
43933;SDS011;59081;42.706;23.306;2022-09-23T00:46:25;8.20;;;5.93;;
43933;SDS011;59081;42.706;23.306;2022-09-23T00:48:56;6.45;;;5.75;;
43933;SDS011;59081;42.706;23.306;2022-09-23T00:51:28;7.70;;;5.22;;
43933;SDS011;59081;42.706;23.306;2022-09-23T00:53:59;8.07;;;5.60;;
43933;SDS011;59081;42.706;23.306;2022-09-23T00:56:26;6.80;;;5.88;;
43933;SDS011;59081;42.706;23.306;2022-09-23T00:58:52;6.53;;;5.00;;
43933;SDS011;59081;42.706;23.306;2022-09-23T01:01:18;8.70;;;5.85;;
43933;SDS011;59081;42.706;23.306;2022-09-23T01:03:44;9.13;;;5.75;;
43933;SDS011;59081;42.706;23.306;2022-09-23T01:06:10;8.07;;;5.80;;
43933;SDS011;59081;42.706;23.306;2022-09-23T01:08:37;7.63;;;5.60;;
43933;SDS011;59081;42.706;23.306;2022-09-23T01:21:55;8.90;;;5.90;;
43933;SDS011;59081;42.706;23.306;2022-09-23T01:24:43;11.10;;;6.32;;
43933;SDS011;59081;42.706;23.306;2022-09-23T01:27:15;7.03;;;5.32;;
43933;SDS011;59081;42.706;23.306;2022-09-23T01:38:10;8.45;;;5.47;;
43933;SDS011;59081;42.706;23.306;2022-09-23T01:40:53;8.30;;;5.50;;
43933;SDS011;59081;42.706;23.306;2022-09-23T01:43:26;9.07;;;6.28;;
43933;SDS011;59081;42.706;23.306;2022-09-23T01:46:00;8.85;;;5.97;;
43933;SDS011;59081;42.706;23.306;2022-09-23T01:48:40;8.00;;;5.55;;
43933;SDS011;59081;42.706;23.306;2022-09-23T01:51:18;9.07;;;6.25;;
43933;SDS011;59081;42.706;23.306;2022-09-23T01:56:32;8.83;;;6.13;;
43933;SDS011;59081;42.706;23.306;2022-09-23T02:01:54;7.60;;;6.22;;
43933;SDS011;59081;42.706;23.306;2022-09-23T02:07:02;10.00;;;6.82;;
43933;SDS011;59081;42.706;23.306;2022-09-23T02:09:35;10.10;;;6.80;;
43933;SDS011;59081;42.706;23.306;2022-09-23T02:12:08;8.20;;;6.75;;
43933;SDS011;59081;42.706;23.306;2022-09-23T02:14:42;9.20;;;7.07;;
43933;SDS011;59081;42.706;23.306;2022-09-23T02:17:14;9.82;;;6.22;;
43933;SDS011;59081;42.706;23.306;2022-09-23T02:19:52;9.52;;;6.75;;
43933;SDS011;59081;42.706;23.306;2022-09-23T02:22:25;9.20;;;6.70;;
43933;SDS011;59081;42.706;23.306;2022-09-23T02:24:54;8.15;;;6.18;;
43933;SDS011;59081;42.706;23.306;2022-09-23T02:30:24;9.20;;;6.70;;
43933;SDS011;59081;42.706;23.306;2022-09-23T02:32:58;11.63;;;6.60;;
43933;SDS011;59081;42.706;23.306;2022-09-23T02:35:30;10.52;;;6.93;;
43933;SDS011;59081;42.706;23.306;2022-09-23T02:43:19;9.93;;;7.18;;
43933;SDS011;59081;42.706;23.306;2022-09-23T02:45:49;11.82;;;7.20;;
43933;SDS011;59081;42.706;23.306;2022-09-23T02:48:17;11.77;;;7.32;;
43933;SDS011;59081;42.706;23.306;2022-09-23T02:50:47;9.23;;;7.47;;
43933;SDS011;59081;42.706;23.306;2022-09-23T02:53:13;10.60;;;7.20;;
43933;SDS011;59081;42.706;23.306;2022-09-23T02:55:41;15.57;;;7.85;;
43933;SDS011;59081;42.706;23.306;2022-09-23T02:58:07;10.35;;;7.05;;
43933;SDS011;59081;42.706;23.306;2022-09-23T03:03:19;10.10;;;6.85;;
43933;SDS011;59081;42.706;23.306;2022-09-23T03:05:56;13.23;;;6.78;;
43933;SDS011;59081;42.706;23.306;2022-09-23T03:11:13;14.75;;;7.18;;
43933;SDS011;59081;42.706;23.306;2022-09-23T03:16:42;8.80;;;6.75;;
43933;SDS011;59081;42.706;23.306;2022-09-23T03:21:49;8.25;;;6.65;;
43933;SDS011;59081;42.706;23.306;2022-09-23T03:24:25;9.23;;;7.28;;
43933;SDS011;59081;42.706;23.306;2022-09-23T03:26:55;13.38;;;7.00;;
43933;SDS011;59081;42.706;23.306;2022-09-23T03:29:24;10.32;;;7.05;;
43933;SDS011;59081;42.706;23.306;2022-09-23T03:31:51;9.25;;;6.90;;
43933;SDS011;59081;42.706;23.306;2022-09-23T03:37:28;8.80;;;6.90;;
43933;SDS011;59081;42.706;23.306;2022-09-23T03:42:48;13.65;;;7.50;;
43933;SDS011;59081;42.706;23.306;2022-09-23T03:45:24;11.50;;;7.47;;
43933;SDS011;59081;42.706;23.306;2022-09-23T03:47:52;11.50;;;7.18;;
43933;SDS011;59081;42.706;23.306;2022-09-23T03:50:17;10.18;;;6.60;;
43933;SDS011;59081;42.706;23.306;2022-09-23T03:52:43;10.50;;;7.10;;
43933;SDS011;59081;42.706;23.306;2022-09-23T03:55:09;12.80;;;6.32;;
43933;SDS011;59081;42.706;23.306;2022-09-23T03:57:37;10.10;;;6.88;;
43933;SDS011;59081;42.706;23.306;2022-09-23T04:00:03;13.98;;;7.97;;
43933;SDS011;59081;42.706;23.306;2022-09-23T04:02:30;8.93;;;6.80;;
43933;SDS011;59081;42.706;23.306;2022-09-23T04:04:56;10.93;;;7.18;;
43933;SDS011;59081;42.706;23.306;2022-09-23T04:07:24;10.23;;;6.45;;
43933;SDS011;59081;42.706;23.306;2022-09-23T04:09:50;10.98;;;8.05;;
43933;SDS011;59081;42.706;23.306;2022-09-23T04:12:15;11.00;;;7.05;;
43933;SDS011;59081;42.706;23.306;2022-09-23T04:14:41;11.85;;;7.00;;
43933;SDS011;59081;42.706;23.306;2022-09-23T04:17:07;8.95;;;7.07;;
43933;SDS011;59081;42.706;23.306;2022-09-23T04:19:33;12.13;;;8.48;;
43933;SDS011;59081;42.706;23.306;2022-09-23T04:21:59;12.02;;;8.48;;
43933;SDS011;59081;42.706;23.306;2022-09-23T04:24:25;13.27;;;8.95;;
43933;SDS011;59081;42.706;23.306;2022-09-23T04:26:53;13.13;;;9.43;;
43933;SDS011;59081;42.706;23.306;2022-09-23T04:29:21;13.73;;;9.15;;
43933;SDS011;59081;42.706;23.306;2022-09-23T04:31:47;16.98;;;11.10;;
43933;SDS011;59081;42.706;23.306;2022-09-23T04:34:13;25.42;;;15.95;;
43933;SDS011;59081;42.706;23.306;2022-09-23T04:36:40;17.45;;;9.43;;
43933;SDS011;59081;42.706;23.306;2022-09-23T04:39:06;15.50;;;9.38;;
43933;SDS011;59081;42.706;23.306;2022-09-23T04:41:31;16.08;;;9.75;;
43933;SDS011;59081;42.706;23.306;2022-09-23T04:43:59;13.68;;;8.93;;
43933;SDS011;59081;42.706;23.306;2022-09-23T04:46:25;18.30;;;11.88;;
43933;SDS011;59081;42.706;23.306;2022-09-23T04:48:51;15.88;;;9.38;;
43933;SDS011;59081;42.706;23.306;2022-09-23T04:51:18;12.43;;;9.25;;
43933;SDS011;59081;42.706;23.306;2022-09-23T04:53:46;13.52;;;8.80;;
43933;SDS011;59081;42.706;23.306;2022-09-23T04:56:14;17.70;;;8.35;;
43933;SDS011;59081;42.706;23.306;2022-09-23T04:58:41;12.73;;;8.98;;
43933;SDS011;59081;42.706;23.306;2022-09-23T05:01:08;15.45;;;8.90;;
43933;SDS011;59081;42.706;23.306;2022-09-23T05:03:39;14.57;;;8.52;;
43933;SDS011;59081;42.706;23.306;2022-09-23T05:06:05;9.93;;;6.63;;
43933;SDS011;59081;42.706;23.306;2022-09-23T05:08:32;10.32;;;8.43;;
43933;SDS011;59081;42.706;23.306;2022-09-23T05:10:58;10.02;;;5.50;;
43933;SDS011;59081;42.706;23.306;2022-09-23T05:13:25;14.65;;;8.75;;
43933;SDS011;59081;42.706;23.306;2022-09-23T05:16:01;14.35;;;8.75;;
43933;SDS011;59081;42.706;23.306;2022-09-23T05:18:32;11.07;;;8.38;;
43933;SDS011;59081;42.706;23.306;2022-09-23T05:20:59;5.53;;;2.78;;
43933;SDS011;59081;42.706;23.306;2022-09-23T05:23:25;10.35;;;7.80;;
43933;SDS011;59081;42.706;23.306;2022-09-23T05:25:55;10.43;;;8.27;;
43933;SDS011;59081;42.706;23.306;2022-09-23T05:28:25;10.75;;;7.90;;
43933;SDS011;59081;42.706;23.306;2022-09-23T05:30:59;16.25;;;8.48;;
43933;SDS011;59081;42.706;23.306;2022-09-23T05:33:32;9.75;;;7.40;;
43933;SDS011;59081;42.706;23.306;2022-09-23T05:36:01;12.85;;;8.30;;
43933;SDS011;59081;42.706;23.306;2022-09-23T05:38:27;3.95;;;2.97;;
43933;SDS011;59081;42.706;23.306;2022-09-23T05:40:57;13.15;;;9.43;;
43933;SDS011;59081;42.706;23.306;2022-09-23T05:43:27;10.52;;;6.97;;
43933;SDS011;59081;42.706;23.306;2022-09-23T05:46:27;12.63;;;9.45;;
43933;SDS011;59081;42.706;23.306;2022-09-23T05:48:49;13.50;;;9.32;;
43933;SDS011;59081;42.706;23.306;2022-09-23T05:51:16;17.27;;;9.38;;
43933;SDS011;59081;42.706;23.306;2022-09-23T05:53:44;8.70;;;5.55;;
43933;SDS011;59081;42.706;23.306;2022-09-23T05:56:14;12.52;;;8.40;;
43933;SDS011;59081;42.706;23.306;2022-09-23T05:58:42;11.45;;;7.43;;
43933;SDS011;59081;42.706;23.306;2022-09-23T06:01:12;11.50;;;6.63;;
43933;SDS011;59081;42.706;23.306;2022-09-23T06:03:39;14.75;;;8.38;;
43933;SDS011;59081;42.706;23.306;2022-09-23T06:06:05;4.32;;;3.42;;
43933;SDS011;59081;42.706;23.306;2022-09-23T06:08:31;15.30;;;7.65;;
43933;SDS011;59081;42.706;23.306;2022-09-23T06:11:01;17.10;;;8.13;;
43933;SDS011;59081;42.706;23.306;2022-09-23T06:13:31;12.13;;;7.40;;
43933;SDS011;59081;42.706;23.306;2022-09-23T06:15:57;10.25;;;6.60;;
43933;SDS011;59081;42.706;23.306;2022-09-23T06:18:22;10.18;;;6.22;;
43933;SDS011;59081;42.706;23.306;2022-09-23T06:20:47;8.20;;;6.38;;
43933;SDS011;59081;42.706;23.306;2022-09-23T06:23:13;11.68;;;6.63;;
43933;SDS011;59081;42.706;23.306;2022-09-23T06:25:38;5.13;;;3.50;;
43933;SDS011;59081;42.706;23.306;2022-09-23T06:28:04;7.78;;;4.90;;
43933;SDS011;59081;42.706;23.306;2022-09-23T06:30:34;4.90;;;1.90;;
43933;SDS011;59081;42.706;23.306;2022-09-23T06:33:00;7.07;;;5.65;;
43933;SDS011;59081;42.706;23.306;2022-09-23T06:35:26;8.90;;;6.30;;
43933;SDS011;59081;42.706;23.306;2022-09-23T06:37:52;8.68;;;6.05;;
43933;SDS011;59081;42.706;23.306;2022-09-23T06:40:18;11.23;;;6.97;;
43933;SDS011;59081;42.706;23.306;2022-09-23T06:42:45;9.23;;;5.97;;
43933;SDS011;59081;42.706;23.306;2022-09-23T06:45:11;9.25;;;6.70;;
43933;SDS011;59081;42.706;23.306;2022-09-23T06:47:38;8.93;;;5.88;;
43933;SDS011;59081;42.706;23.306;2022-09-23T06:50:05;10.93;;;6.93;;
43933;SDS011;59081;42.706;23.306;2022-09-23T06:52:31;17.55;;;6.57;;
43933;SDS011;59081;42.706;23.306;2022-09-23T06:54:57;7.93;;;5.95;;
43933;SDS011;59081;42.706;23.306;2022-09-23T06:57:22;5.70;;;4.53;;
43933;SDS011;59081;42.706;23.306;2022-09-23T06:59:48;8.25;;;5.93;;
43933;SDS011;59081;42.706;23.306;2022-09-23T07:02:14;8.15;;;5.82;;
43933;SDS011;59081;42.706;23.306;2022-09-23T07:04:39;9.55;;;6.03;;
43933;SDS011;59081;42.706;23.306;2022-09-23T07:07:05;9.52;;;6.55;;
43933;SDS011;59081;42.706;23.306;2022-09-23T07:09:30;7.78;;;5.13;;
43933;SDS011;59081;42.706;23.306;2022-09-23T07:11:56;8.65;;;5.47;;
43933;SDS011;59081;42.706;23.306;2022-09-23T07:14:22;6.55;;;5.10;;
43933;SDS011;59081;42.706;23.306;2022-09-23T07:16:48;7.35;;;5.85;;
43933;SDS011;59081;42.706;23.306;2022-09-23T07:19:14;6.65;;;5.03;;
43933;SDS011;59081;42.706;23.306;2022-09-23T07:21:40;7.55;;;5.70;;
43933;SDS011;59081;42.706;23.306;2022-09-23T07:24:05;4.38;;;3.83;;
43933;SDS011;59081;42.706;23.306;2022-09-23T07:26:31;9.27;;;5.30;;
43933;SDS011;59081;42.706;23.306;2022-09-23T07:28:58;7.72;;;5.07;;
43933;SDS011;59081;42.706;23.306;2022-09-23T07:31:29;10.93;;;5.75;;
43933;SDS011;59081;42.706;23.306;2022-09-23T07:33:56;10.07;;;5.28;;
43933;SDS011;59081;42.706;23.306;2022-09-23T07:36:22;7.65;;;5.88;;
43933;SDS011;59081;42.706;23.306;2022-09-23T07:38:48;8.20;;;5.07;;
43933;SDS011;59081;42.706;23.306;2022-09-23T07:41:14;7.47;;;5.03;;
43933;SDS011;59081;42.706;23.306;2022-09-23T07:43:42;6.40;;;4.40;;
43933;SDS011;59081;42.706;23.306;2022-09-23T07:46:09;7.63;;;5.25;;
43933;SDS011;59081;42.706;23.306;2022-09-23T07:48:40;5.07;;;4.18;;
43933;SDS011;59081;42.706;23.306;2022-09-23T07:51:07;10.32;;;5.00;;
43933;SDS011;59081;42.706;23.306;2022-09-23T07:53:36;15.13;;;4.90;;
43933;SDS011;59081;42.706;23.306;2022-09-23T07:56:02;10.05;;;4.28;;
43933;SDS011;59081;42.706;23.306;2022-09-23T07:58:30;6.32;;;4.95;;
43933;SDS011;59081;42.706;23.306;2022-09-23T08:01:09;6.40;;;4.40;;
43933;SDS011;59081;42.706;23.306;2022-09-23T08:03:36;5.57;;;4.28;;
43933;SDS011;59081;42.706;23.306;2022-09-23T08:06:06;7.65;;;4.95;;
43933;SDS011;59081;42.706;23.306;2022-09-23T08:08:36;4.05;;;3.38;;
43933;SDS011;59081;42.706;23.306;2022-09-23T08:11:10;7.88;;;4.85;;
43933;SDS011;59081;42.706;23.306;2022-09-23T08:13:38;6.13;;;4.63;;
43933;SDS011;59081;42.706;23.306;2022-09-23T08:16:03;1.73;;;1.50;;
43933;SDS011;59081;42.706;23.306;2022-09-23T08:18:29;5.32;;;4.80;;
43933;SDS011;59081;42.706;23.306;2022-09-23T08:20:54;9.32;;;4.75;;
43933;SDS011;59081;42.706;23.306;2022-09-23T08:23:20;7.82;;;5.03;;
43933;SDS011;59081;42.706;23.306;2022-09-23T08:25:45;6.88;;;3.97;;
43933;SDS011;59081;42.706;23.306;2022-09-23T08:28:14;11.45;;;3.65;;
43933;SDS011;59081;42.706;23.306;2022-09-23T08:30:43;4.73;;;4.10;;
43933;SDS011;59081;42.706;23.306;2022-09-23T08:33:12;5.53;;;3.70;;
43933;SDS011;59081;42.706;23.306;2022-09-23T08:35:38;4.82;;;3.50;;
43933;SDS011;59081;42.706;23.306;2022-09-23T08:38:04;4.90;;;4.13;;
43933;SDS011;59081;42.706;23.306;2022-09-23T08:40:32;5.28;;;3.60;;
43933;SDS011;59081;42.706;23.306;2022-09-23T08:43:00;4.40;;;3.97;;
43933;SDS011;59081;42.706;23.306;2022-09-23T08:45:26;4.63;;;3.47;;
43933;SDS011;59081;42.706;23.306;2022-09-23T08:48:02;4.82;;;3.05;;
43933;SDS011;59081;42.706;23.306;2022-09-23T08:50:37;4.15;;;3.38;;
43933;SDS011;59081;42.706;23.306;2022-09-23T08:55:42;4.40;;;3.55;;
43933;SDS011;59081;42.706;23.306;2022-09-23T09:06:50;4.28;;;2.83;;
43933;SDS011;59081;42.706;23.306;2022-09-23T09:12:00;3.95;;;3.30;;
43933;SDS011;59081;42.706;23.306;2022-09-23T09:14:35;4.72;;;3.00;;
43933;SDS011;59081;42.706;23.306;2022-09-23T09:17:09;3.35;;;2.88;;
43933;SDS011;59081;42.706;23.306;2022-09-23T09:19:55;3.85;;;2.85;;
43933;SDS011;59081;42.706;23.306;2022-09-23T09:28:12;3.53;;;2.50;;
43933;SDS011;59081;42.706;23.306;2022-09-23T09:30:45;3.55;;;2.50;;
43933;SDS011;59081;42.706;23.306;2022-09-23T09:33:15;2.70;;;2.42;;
43933;SDS011;59081;42.706;23.306;2022-09-23T09:38:14;5.20;;;2.60;;
43933;SDS011;59081;42.706;23.306;2022-09-23T09:40:42;3.03;;;2.30;;
43933;SDS011;59081;42.706;23.306;2022-09-23T09:43:15;3.15;;;2.55;;
43933;SDS011;59081;42.706;23.306;2022-09-23T09:46:00;3.17;;;2.88;;
43933;SDS011;59081;42.706;23.306;2022-09-23T09:48:57;5.13;;;2.40;;
43933;SDS011;59081;42.706;23.306;2022-09-23T09:51:26;2.42;;;2.22;;
43933;SDS011;59081;42.706;23.306;2022-09-23T09:53:53;2.97;;;2.58;;
43933;SDS011;59081;42.706;23.306;2022-09-23T09:56:30;2.75;;;2.33;;
43933;SDS011;59081;42.706;23.306;2022-09-23T09:59:18;3.45;;;2.55;;
43933;SDS011;59081;42.706;23.306;2022-09-23T10:01:49;2.60;;;2.40;;
43933;SDS011;59081;42.706;23.306;2022-09-23T10:04:40;2.67;;;2.20;;
43933;SDS011;59081;42.706;23.306;2022-09-23T10:07:13;2.67;;;1.80;;
43933;SDS011;59081;42.706;23.306;2022-09-23T10:09:47;2.60;;;2.40;;
43933;SDS011;59081;42.706;23.306;2022-09-23T10:14:42;2.33;;;2.13;;
43933;SDS011;59081;42.706;23.306;2022-09-23T10:17:20;2.20;;;2.00;;
43933;SDS011;59081;42.706;23.306;2022-09-23T10:19:58;2.90;;;2.45;;
43933;SDS011;59081;42.706;23.306;2022-09-23T10:22:28;2.63;;;1.77;;
43933;SDS011;59081;42.706;23.306;2022-09-23T10:24:58;4.25;;;2.33;;
43933;SDS011;59081;42.706;23.306;2022-09-23T10:27:32;3.13;;;2.42;;
43933;SDS011;59081;42.706;23.306;2022-09-23T10:30:21;2.10;;;1.85;;
43933;SDS011;59081;42.706;23.306;2022-09-23T10:32:50;1.40;;;1.30;;
43933;SDS011;59081;42.706;23.306;2022-09-23T10:35:19;2.55;;;2.35;;
43933;SDS011;59081;42.706;23.306;2022-09-23T10:37:58;3.53;;;1.95;;
43933;SDS011;59081;42.706;23.306;2022-09-23T10:40:26;2.80;;;1.98;;
43933;SDS011;59081;42.706;23.306;2022-09-23T10:43:22;4.35;;;1.92;;
43933;SDS011;59081;42.706;23.306;2022-09-23T10:46:33;2.03;;;1.30;;
43933;SDS011;59081;42.706;23.306;2022-09-23T10:54:49;1.35;;;1.25;;
43933;SDS011;59081;42.706;23.306;2022-09-23T10:57:34;2.38;;;1.45;;
43933;SDS011;59081;42.706;23.306;2022-09-23T11:00:20;2.10;;;1.30;;
43933;SDS011;59081;42.706;23.306;2022-09-23T11:24:29;2.53;;;1.58;;
43933;SDS011;59081;42.706;23.306;2022-09-23T11:29:54;1.50;;;1.35;;
43933;SDS011;59081;42.706;23.306;2022-09-23T11:35:33;5.38;;;1.60;;
43933;SDS011;59081;42.706;23.306;2022-09-23T11:38:14;3.42;;;1.45;;
43933;SDS011;59081;42.706;23.306;2022-09-23T11:40:57;3.25;;;1.75;;
43933;SDS011;59081;42.706;23.306;2022-09-23T11:43:26;1.23;;;1.10;;
43933;SDS011;59081;42.706;23.306;2022-09-23T11:54:42;1.33;;;1.10;;
43933;SDS011;59081;42.706;23.306;2022-09-23T11:58:15;1.65;;;1.20;;
43933;SDS011;59081;42.706;23.306;2022-09-23T12:00:44;3.60;;;1.08;;
43933;SDS011;59081;42.706;23.306;2022-09-23T12:06:19;1.95;;;1.45;;
43933;SDS011;59081;42.706;23.306;2022-09-23T12:08:49;2.17;;;1.73;;
43933;SDS011;59081;42.706;23.306;2022-09-23T12:29:49;1.65;;;1.17;;
43933;SDS011;59081;42.706;23.306;2022-09-23T12:32:20;2.28;;;1.20;;
43933;SDS011;59081;42.706;23.306;2022-09-23T12:34:47;2.15;;;1.55;;
43933;SDS011;59081;42.706;23.306;2022-09-23T12:37:25;3.10;;;1.52;;
43933;SDS011;59081;42.706;23.306;2022-09-23T12:39:59;2.10;;;1.55;;
43933;SDS011;59081;42.706;23.306;2022-09-23T12:42:30;2.15;;;1.40;;
43933;SDS011;59081;42.706;23.306;2022-09-23T12:45:15;2.33;;;1.60;;
43933;SDS011;59081;42.706;23.306;2022-09-23T12:48:00;1.88;;;1.42;;
43933;SDS011;59081;42.706;23.306;2022-09-23T12:53:48;1.50;;;1.20;;
43933;SDS011;59081;42.706;23.306;2022-09-23T12:56:26;1.00;;;1.00;;
43933;SDS011;59081;42.706;23.306;2022-09-23T13:01:39;1.58;;;1.35;;
43933;SDS011;59081;42.706;23.306;2022-09-23T13:04:11;4.57;;;1.42;;
43933;SDS011;59081;42.706;23.306;2022-09-23T13:07:30;1.63;;;1.10;;
43933;SDS011;59081;42.706;23.306;2022-09-23T13:12:37;1.13;;;1.02;;
43933;SDS011;59081;42.706;23.306;2022-09-23T13:15:14;1.23;;;1.10;;
43933;SDS011;59081;42.706;23.306;2022-09-23T13:17:46;1.23;;;1.13;;
43933;SDS011;59081;42.706;23.306;2022-09-23T13:25:18;1.45;;;1.35;;
43933;SDS011;59081;42.706;23.306;2022-09-23T13:27:48;2.25;;;1.30;;
43933;SDS011;59081;42.706;23.306;2022-09-23T13:30:17;2.78;;;1.58;;
43933;SDS011;59081;42.706;23.306;2022-09-23T13:38:24;1.85;;;1.45;;
43933;SDS011;59081;42.706;23.306;2022-09-23T13:40:54;6.55;;;1.27;;
43933;SDS011;59081;42.706;23.306;2022-09-23T13:43:24;1.67;;;1.33;;
43933;SDS011;59081;42.706;23.306;2022-09-23T13:45:55;2.35;;;1.70;;
43933;SDS011;59081;42.706;23.306;2022-09-23T13:48:22;1.65;;;1.30;;
43933;SDS011;59081;42.706;23.306;2022-09-23T13:50:51;1.80;;;1.45;;
43933;SDS011;59081;42.706;23.306;2022-09-23T13:53:25;3.42;;;1.20;;
43933;SDS011;59081;42.706;23.306;2022-09-23T13:58:27;3.47;;;1.52;;
43933;SDS011;59081;42.706;23.306;2022-09-23T14:00:55;2.63;;;1.33;;
43933;SDS011;59081;42.706;23.306;2022-09-23T14:05:50;1.85;;;1.50;;
43933;SDS011;59081;42.706;23.306;2022-09-23T14:08:16;2.17;;;1.42;;
43933;SDS011;59081;42.706;23.306;2022-09-23T14:10:43;4.55;;;1.70;;
43933;SDS011;59081;42.706;23.306;2022-09-23T14:13:14;1.50;;;1.40;;
43933;SDS011;59081;42.706;23.306;2022-09-23T14:15:41;1.40;;;1.30;;
43933;SDS011;59081;42.706;23.306;2022-09-23T14:18:10;2.65;;;1.80;;
43933;SDS011;59081;42.706;23.306;2022-09-23T14:20:45;2.42;;;1.70;;
43933;SDS011;59081;42.706;23.306;2022-09-23T14:23:14;2.35;;;1.90;;
43933;SDS011;59081;42.706;23.306;2022-09-23T14:25:43;2.15;;;1.65;;
43933;SDS011;59081;42.706;23.306;2022-09-23T14:28:17;4.13;;;2.00;;
43933;SDS011;59081;42.706;23.306;2022-09-23T14:30:45;4.05;;;2.25;;
43933;SDS011;59081;42.706;23.306;2022-09-23T14:33:33;3.75;;;1.90;;
43933;SDS011;59081;42.706;23.306;2022-09-23T14:36:02;2.40;;;1.55;;
43933;SDS011;59081;42.706;23.306;2022-09-23T14:38:32;2.38;;;1.75;;
43933;SDS011;59081;42.706;23.306;2022-09-23T14:41:23;2.47;;;1.88;;
43933;SDS011;59081;42.706;23.306;2022-09-23T14:43:57;1.83;;;1.45;;
43933;SDS011;59081;42.706;23.306;2022-09-23T14:46:25;1.95;;;1.48;;
43933;SDS011;59081;42.706;23.306;2022-09-23T14:57:24;2.40;;;1.77;;
43933;SDS011;59081;42.706;23.306;2022-09-23T15:02:33;1.95;;;1.63;;
43933;SDS011;59081;42.706;23.306;2022-09-23T15:05:12;3.20;;;1.58;;
43933;SDS011;59081;42.706;23.306;2022-09-23T15:07:43;7.22;;;2.10;;
43933;SDS011;59081;42.706;23.306;2022-09-23T15:10:17;1.92;;;1.67;;
43933;SDS011;59081;42.706;23.306;2022-09-23T15:12:55;2.35;;;1.88;;
43933;SDS011;59081;42.706;23.306;2022-09-23T15:15:31;3.17;;;2.00;;
43933;SDS011;59081;42.706;23.306;2022-09-23T15:18:04;3.00;;;2.13;;
43933;SDS011;59081;42.706;23.306;2022-09-23T15:20:31;8.02;;;2.58;;
43933;SDS011;59081;42.706;23.306;2022-09-23T15:22:58;5.78;;;2.65;;
43933;SDS011;59081;42.706;23.306;2022-09-23T15:25:24;2.97;;;2.00;;
43933;SDS011;59081;42.706;23.306;2022-09-23T15:27:54;2.65;;;2.22;;
43933;SDS011;59081;42.706;23.306;2022-09-23T15:30:21;3.00;;;2.30;;
43933;SDS011;59081;42.706;23.306;2022-09-23T15:32:47;3.90;;;1.90;;
43933;SDS011;59081;42.706;23.306;2022-09-23T15:35:13;2.60;;;2.25;;
43933;SDS011;59081;42.706;23.306;2022-09-23T15:37:41;4.40;;;2.17;;
43933;SDS011;59081;42.706;23.306;2022-09-23T15:40:13;3.75;;;2.55;;
43933;SDS011;59081;42.706;23.306;2022-09-23T15:42:44;4.20;;;2.83;;
43933;SDS011;59081;42.706;23.306;2022-09-23T15:45:15;3.00;;;2.63;;
43933;SDS011;59081;42.706;23.306;2022-09-23T15:47:40;3.85;;;2.55;;
43933;SDS011;59081;42.706;23.306;2022-09-23T15:50:06;3.00;;;2.40;;
43933;SDS011;59081;42.706;23.306;2022-09-23T15:52:31;4.35;;;2.20;;
43933;SDS011;59081;42.706;23.306;2022-09-23T15:54:57;4.88;;;2.30;;
43933;SDS011;59081;42.706;23.306;2022-09-23T15:57:23;2.45;;;2.03;;
43933;SDS011;59081;42.706;23.306;2022-09-23T15:59:50;4.13;;;2.60;;
43933;SDS011;59081;42.706;23.306;2022-09-23T16:02:18;2.33;;;2.13;;
43933;SDS011;59081;42.706;23.306;2022-09-23T16:04:47;5.00;;;2.35;;
43933;SDS011;59081;42.706;23.306;2022-09-23T16:07:15;5.53;;;2.53;;
43933;SDS011;59081;42.706;23.306;2022-09-23T16:09:41;6.18;;;3.65;;
43933;SDS011;59081;42.706;23.306;2022-09-23T16:12:07;4.40;;;2.80;;
43933;SDS011;59081;42.706;23.306;2022-09-23T16:14:35;2.47;;;2.00;;
43933;SDS011;59081;42.706;23.306;2022-09-23T16:17:01;3.65;;;2.80;;
43933;SDS011;59081;42.706;23.306;2022-09-23T16:19:27;4.05;;;2.30;;
43933;SDS011;59081;42.706;23.306;2022-09-23T16:21:56;6.80;;;2.83;;
43933;SDS011;59081;42.706;23.306;2022-09-23T16:24:22;8.63;;;3.00;;
43933;SDS011;59081;42.706;23.306;2022-09-23T16:26:47;7.72;;;3.05;;
43933;SDS011;59081;42.706;23.306;2022-09-23T16:29:13;4.35;;;2.83;;
43933;SDS011;59081;42.706;23.306;2022-09-23T16:31:39;6.03;;;2.78;;
43933;SDS011;59081;42.706;23.306;2022-09-23T16:34:05;4.93;;;3.30;;
43933;SDS011;59081;42.706;23.306;2022-09-23T16:36:36;3.65;;;2.97;;
43933;SDS011;59081;42.706;23.306;2022-09-23T16:39:05;4.30;;;3.42;;
43933;SDS011;59081;42.706;23.306;2022-09-23T16:41:34;6.72;;;3.60;;
43933;SDS011;59081;42.706;23.306;2022-09-23T16:44:00;3.60;;;2.55;;
43933;SDS011;59081;42.706;23.306;2022-09-23T16:46:28;4.78;;;2.78;;
43933;SDS011;59081;42.706;23.306;2022-09-23T16:48:55;13.15;;;3.50;;
43933;SDS011;59081;42.706;23.306;2022-09-23T16:51:22;6.95;;;3.03;;
43933;SDS011;59081;42.706;23.306;2022-09-23T16:54:05;4.60;;;2.85;;
43933;SDS011;59081;42.706;23.306;2022-09-23T16:56:36;4.05;;;2.70;;
43933;SDS011;59081;42.706;23.306;2022-09-23T16:59:04;7.28;;;3.05;;
43933;SDS011;59081;42.706;23.306;2022-09-23T17:01:29;5.55;;;3.25;;
43933;SDS011;59081;42.706;23.306;2022-09-23T17:04:14;3.78;;;2.50;;
43933;SDS011;59081;42.706;23.306;2022-09-23T17:06:44;5.13;;;3.13;;
43933;SDS011;59081;42.706;23.306;2022-09-23T17:09:12;6.82;;;3.38;;
43933;SDS011;59081;42.706;23.306;2022-09-23T17:11:38;6.28;;;3.72;;
43933;SDS011;59081;42.706;23.306;2022-09-23T17:14:04;10.25;;;4.78;;
43933;SDS011;59081;42.706;23.306;2022-09-23T17:16:30;6.70;;;4.43;;
43933;SDS011;59081;42.706;23.306;2022-09-23T17:18:57;6.78;;;4.47;;
43933;SDS011;59081;42.706;23.306;2022-09-23T17:21:23;8.88;;;4.90;;
43933;SDS011;59081;42.706;23.306;2022-09-23T17:23:53;10.10;;;6.03;;
43933;SDS011;59081;42.706;23.306;2022-09-23T17:26:20;13.48;;;5.95;;
43933;SDS011;59081;42.706;23.306;2022-09-23T17:28:47;12.88;;;5.97;;
43933;SDS011;59081;42.706;23.306;2022-09-23T17:31:14;11.20;;;6.20;;
43933;SDS011;59081;42.706;23.306;2022-09-23T17:33:39;17.27;;;8.43;;
43933;SDS011;59081;42.706;23.306;2022-09-23T17:36:08;10.52;;;7.05;;
43933;SDS011;59081;42.706;23.306;2022-09-23T17:38:36;12.48;;;7.88;;
43933;SDS011;59081;42.706;23.306;2022-09-23T17:41:03;15.38;;;8.20;;
43933;SDS011;59081;42.706;23.306;2022-09-23T17:43:30;18.02;;;9.50;;